sensor_id;sensor_type;location;lat;lon;timestamp;P1;durP1;ratioP1;P2;durP2;ratioP2
21501;SDS011;27639;48.674;9.242;2022-12-24T00:01:53;6.97;;;1.20;;
21501;SDS011;27639;48.674;9.242;2022-12-24T00:04:18;3.67;;;1.20;;
21501;SDS011;27639;48.674;9.242;2022-12-24T00:06:44;4.97;;;1.30;;
21501;SDS011;27639;48.674;9.242;2022-12-24T00:09:09;5.32;;;1.00;;
21501;SDS011;27639;48.674;9.242;2022-12-24T00:11:35;5.93;;;1.20;;
21501;SDS011;27639;48.674;9.242;2022-12-24T00:14:00;3.63;;;1.17;;
21501;SDS011;27639;48.674;9.242;2022-12-24T00:16:26;6.82;;;1.33;;
21501;SDS011;27639;48.674;9.242;2022-12-24T00:18:52;5.50;;;1.10;;
21501;SDS011;27639;48.674;9.242;2022-12-24T00:21:17;3.17;;;1.00;;
21501;SDS011;27639;48.674;9.242;2022-12-24T00:23:43;5.03;;;1.55;;
21501;SDS011;27639;48.674;9.242;2022-12-24T00:26:09;2.92;;;0.90;;
21501;SDS011;27639;48.674;9.242;2022-12-24T00:28:34;4.93;;;1.10;;
21501;SDS011;27639;48.674;9.242;2022-12-24T00:31:05;6.57;;;1.40;;
21501;SDS011;27639;48.674;9.242;2022-12-24T00:33:32;6.13;;;1.30;;
21501;SDS011;27639;48.674;9.242;2022-12-24T00:35:58;3.53;;;1.00;;
21501;SDS011;27639;48.674;9.242;2022-12-24T00:38:23;5.63;;;1.30;;
21501;SDS011;27639;48.674;9.242;2022-12-24T00:40:49;5.05;;;0.93;;
21501;SDS011;27639;48.674;9.242;2022-12-24T00:43:14;3.65;;;1.13;;
21501;SDS011;27639;48.674;9.242;2022-12-24T00:45:40;5.80;;;1.40;;
21501;SDS011;27639;48.674;9.242;2022-12-24T00:48:05;5.43;;;1.30;;
21501;SDS011;27639;48.674;9.242;2022-12-24T00:50:31;3.08;;;1.20;;
21501;SDS011;27639;48.674;9.242;2022-12-24T00:52:56;3.80;;;1.10;;
21501;SDS011;27639;48.674;9.242;2022-12-24T00:55:22;3.90;;;1.20;;
21501;SDS011;27639;48.674;9.242;2022-12-24T00:57:48;5.30;;;1.25;;
21501;SDS011;27639;48.674;9.242;2022-12-24T01:00:14;4.93;;;1.20;;
21501;SDS011;27639;48.674;9.242;2022-12-24T01:02:41;4.72;;;1.20;;
21501;SDS011;27639;48.674;9.242;2022-12-24T01:05:08;5.13;;;1.20;;
21501;SDS011;27639;48.674;9.242;2022-12-24T01:07:36;4.25;;;1.10;;
21501;SDS011;27639;48.674;9.242;2022-12-24T01:10:03;4.53;;;1.20;;
21501;SDS011;27639;48.674;9.242;2022-12-24T01:12:30;5.72;;;1.20;;
21501;SDS011;27639;48.674;9.242;2022-12-24T01:14:55;3.97;;;1.15;;
21501;SDS011;27639;48.674;9.242;2022-12-24T01:17:21;4.88;;;1.63;;
21501;SDS011;27639;48.674;9.242;2022-12-24T01:19:47;4.13;;;1.30;;
21501;SDS011;27639;48.674;9.242;2022-12-24T01:22:12;6.25;;;1.35;;
21501;SDS011;27639;48.674;9.242;2022-12-24T01:24:41;2.50;;;0.90;;
21501;SDS011;27639;48.674;9.242;2022-12-24T01:27:07;4.05;;;1.10;;
21501;SDS011;27639;48.674;9.242;2022-12-24T01:29:32;5.75;;;1.60;;
21501;SDS011;27639;48.674;9.242;2022-12-24T01:31:58;4.38;;;1.33;;
21501;SDS011;27639;48.674;9.242;2022-12-24T01:34:23;6.00;;;1.27;;
21501;SDS011;27639;48.674;9.242;2022-12-24T01:36:49;5.75;;;1.45;;
21501;SDS011;27639;48.674;9.242;2022-12-24T01:39:15;4.15;;;1.23;;
21501;SDS011;27639;48.674;9.242;2022-12-24T01:41:40;5.95;;;1.63;;
21501;SDS011;27639;48.674;9.242;2022-12-24T01:44:29;3.72;;;0.98;;
21501;SDS011;27639;48.674;9.242;2022-12-24T01:49:28;3.65;;;1.17;;
21501;SDS011;27639;48.674;9.242;2022-12-24T01:51:55;6.35;;;1.92;;
21501;SDS011;27639;48.674;9.242;2022-12-24T01:54:27;5.60;;;1.30;;
21501;SDS011;27639;48.674;9.242;2022-12-24T01:57:16;4.85;;;1.15;;
21501;SDS011;27639;48.674;9.242;2022-12-24T01:59:52;3.50;;;1.30;;
21501;SDS011;27639;48.674;9.242;2022-12-24T02:02:21;8.07;;;1.45;;
21501;SDS011;27639;48.674;9.242;2022-12-24T02:04:58;3.80;;;1.42;;
21501;SDS011;27639;48.674;9.242;2022-12-24T02:07:28;4.68;;;1.33;;
21501;SDS011;27639;48.674;9.242;2022-12-24T02:09:57;3.53;;;1.27;;
21501;SDS011;27639;48.674;9.242;2022-12-24T02:12:24;6.03;;;1.40;;
21501;SDS011;27639;48.674;9.242;2022-12-24T02:14:52;4.47;;;1.20;;
21501;SDS011;27639;48.674;9.242;2022-12-24T02:20:09;3.83;;;1.20;;
21501;SDS011;27639;48.674;9.242;2022-12-24T02:31:08;6.18;;;2.17;;
21501;SDS011;27639;48.674;9.242;2022-12-24T02:39:02;8.57;;;1.70;;
21501;SDS011;27639;48.674;9.242;2022-12-24T02:41:32;5.70;;;1.80;;
21501;SDS011;27639;48.674;9.242;2022-12-24T02:44:24;5.97;;;1.63;;
21501;SDS011;27639;48.674;9.242;2022-12-24T02:46:52;6.47;;;1.45;;
21501;SDS011;27639;48.674;9.242;2022-12-24T02:49:19;5.53;;;1.42;;
21501;SDS011;27639;48.674;9.242;2022-12-24T02:51:45;5.65;;;1.48;;
21501;SDS011;27639;48.674;9.242;2022-12-24T02:54:11;6.30;;;1.48;;
21501;SDS011;27639;48.674;9.242;2022-12-24T03:02:08;4.50;;;1.38;;
21501;SDS011;27639;48.674;9.242;2022-12-24T03:05:27;4.57;;;1.33;;
21501;SDS011;27639;48.674;9.242;2022-12-24T03:07:42;6.18;;;1.30;;
21501;SDS011;27639;48.674;9.242;2022-12-24T03:10:23;4.32;;;1.10;;
21501;SDS011;27639;48.674;9.242;2022-12-24T03:12:56;6.00;;;1.42;;
21501;SDS011;27639;48.674;9.242;2022-12-24T03:15:28;5.17;;;1.30;;
21501;SDS011;27639;48.674;9.242;2022-12-24T03:17:57;4.75;;;1.25;;
21501;SDS011;27639;48.674;9.242;2022-12-24T03:20:59;5.03;;;1.30;;
21501;SDS011;27639;48.674;9.242;2022-12-24T03:23:17;8.10;;;1.58;;
21501;SDS011;27639;48.674;9.242;2022-12-24T03:25:43;4.47;;;1.15;;
21501;SDS011;27639;48.674;9.242;2022-12-24T03:28:10;5.65;;;1.42;;
21501;SDS011;27639;48.674;9.242;2022-12-24T03:30:40;6.80;;;1.35;;
21501;SDS011;27639;48.674;9.242;2022-12-24T03:33:07;4.90;;;1.20;;
21501;SDS011;27639;48.674;9.242;2022-12-24T03:35:33;9.25;;;1.50;;
21501;SDS011;27639;48.674;9.242;2022-12-24T03:37:59;5.25;;;1.45;;
21501;SDS011;27639;48.674;9.242;2022-12-24T03:40:24;7.57;;;1.80;;
21501;SDS011;27639;48.674;9.242;2022-12-24T03:42:50;5.30;;;1.40;;
21501;SDS011;27639;48.674;9.242;2022-12-24T03:45:16;6.40;;;1.60;;
21501;SDS011;27639;48.674;9.242;2022-12-24T03:47:41;8.63;;;1.83;;
21501;SDS011;27639;48.674;9.242;2022-12-24T03:50:07;7.03;;;1.60;;
21501;SDS011;27639;48.674;9.242;2022-12-24T03:52:32;5.53;;;1.50;;
21501;SDS011;27639;48.674;9.242;2022-12-24T03:54:58;6.22;;;1.45;;
21501;SDS011;27639;48.674;9.242;2022-12-24T03:57:24;5.35;;;1.55;;
21501;SDS011;27639;48.674;9.242;2022-12-24T03:59:49;6.93;;;1.70;;
21501;SDS011;27639;48.674;9.242;2022-12-24T04:02:15;5.45;;;1.48;;
21501;SDS011;27639;48.674;9.242;2022-12-24T04:04:41;7.68;;;1.83;;
21501;SDS011;27639;48.674;9.242;2022-12-24T04:07:06;5.70;;;1.80;;
21501;SDS011;27639;48.674;9.242;2022-12-24T04:09:32;5.40;;;1.48;;
21501;SDS011;27639;48.674;9.242;2022-12-24T04:11:58;6.15;;;1.48;;
21501;SDS011;27639;48.674;9.242;2022-12-24T04:14:23;4.13;;;1.63;;
21501;SDS011;27639;48.674;9.242;2022-12-24T04:16:49;6.25;;;1.60;;
21501;SDS011;27639;48.674;9.242;2022-12-24T04:19:14;7.28;;;1.50;;
21501;SDS011;27639;48.674;9.242;2022-12-24T04:21:40;6.63;;;1.42;;
21501;SDS011;27639;48.674;9.242;2022-12-24T04:24:05;6.05;;;1.50;;
21501;SDS011;27639;48.674;9.242;2022-12-24T04:26:31;4.65;;;1.70;;
21501;SDS011;27639;48.674;9.242;2022-12-24T04:28:57;6.63;;;1.60;;
21501;SDS011;27639;48.674;9.242;2022-12-24T04:31:22;4.50;;;1.33;;
21501;SDS011;27639;48.674;9.242;2022-12-24T04:33:49;5.15;;;1.20;;
21501;SDS011;27639;48.674;9.242;2022-12-24T04:36:16;5.93;;;1.50;;
21501;SDS011;27639;48.674;9.242;2022-12-24T04:38:43;6.85;;;1.55;;
21501;SDS011;27639;48.674;9.242;2022-12-24T04:41:14;5.60;;;1.58;;
21501;SDS011;27639;48.674;9.242;2022-12-24T04:46:10;5.90;;;1.50;;
21501;SDS011;27639;48.674;9.242;2022-12-24T04:48:42;6.00;;;1.77;;
21501;SDS011;27639;48.674;9.242;2022-12-24T04:51:09;8.57;;;1.55;;
21501;SDS011;27639;48.674;9.242;2022-12-24T04:53:35;5.45;;;1.45;;
21501;SDS011;27639;48.674;9.242;2022-12-24T04:56:01;5.97;;;1.40;;
21501;SDS011;27639;48.674;9.242;2022-12-24T04:58:27;6.65;;;1.83;;
21501;SDS011;27639;48.674;9.242;2022-12-24T05:00:53;6.40;;;1.50;;
21501;SDS011;27639;48.674;9.242;2022-12-24T05:03:19;7.47;;;1.83;;
21501;SDS011;27639;48.674;9.242;2022-12-24T05:05:44;7.22;;;1.70;;
21501;SDS011;27639;48.674;9.242;2022-12-24T05:08:10;6.15;;;1.77;;
21501;SDS011;27639;48.674;9.242;2022-12-24T05:10:36;6.68;;;1.70;;
21501;SDS011;27639;48.674;9.242;2022-12-24T05:13:01;7.18;;;1.65;;
21501;SDS011;27639;48.674;9.242;2022-12-24T05:15:27;3.22;;;1.40;;
21501;SDS011;27639;48.674;9.242;2022-12-24T05:17:53;6.93;;;1.90;;
21501;SDS011;27639;48.674;9.242;2022-12-24T05:20:18;5.75;;;1.30;;
21501;SDS011;27639;48.674;9.242;2022-12-24T05:22:44;5.82;;;1.48;;
21501;SDS011;27639;48.674;9.242;2022-12-24T05:25:30;5.80;;;1.45;;
21501;SDS011;27639;48.674;9.242;2022-12-24T05:28:17;6.53;;;2.05;;
21501;SDS011;27639;48.674;9.242;2022-12-24T05:30:42;7.57;;;2.38;;
21501;SDS011;27639;48.674;9.242;2022-12-24T05:33:08;6.28;;;1.75;;
21501;SDS011;27639;48.674;9.242;2022-12-24T05:35:34;7.63;;;2.33;;
21501;SDS011;27639;48.674;9.242;2022-12-24T05:37:59;8.88;;;2.10;;
21501;SDS011;27639;48.674;9.242;2022-12-24T05:40:25;6.40;;;1.58;;
21501;SDS011;27639;48.674;9.242;2022-12-24T05:42:50;7.05;;;2.15;;
21501;SDS011;27639;48.674;9.242;2022-12-24T05:45:16;7.47;;;1.70;;
21501;SDS011;27639;48.674;9.242;2022-12-24T05:47:42;8.45;;;1.95;;
21501;SDS011;27639;48.674;9.242;2022-12-24T05:50:07;6.47;;;1.90;;
21501;SDS011;27639;48.674;9.242;2022-12-24T05:52:33;6.50;;;2.10;;
21501;SDS011;27639;48.674;9.242;2022-12-24T05:54:59;10.38;;;2.08;;
21501;SDS011;27639;48.674;9.242;2022-12-24T05:57:25;6.45;;;2.33;;
21501;SDS011;27639;48.674;9.242;2022-12-24T05:59:50;7.25;;;2.58;;
21501;SDS011;27639;48.674;9.242;2022-12-24T06:02:16;7.88;;;2.63;;
21501;SDS011;27639;48.674;9.242;2022-12-24T06:04:41;6.75;;;2.45;;
21501;SDS011;27639;48.674;9.242;2022-12-24T06:07:07;9.10;;;4.00;;
21501;SDS011;27639;48.674;9.242;2022-12-24T06:09:32;7.28;;;3.72;;
21501;SDS011;27639;48.674;9.242;2022-12-24T06:11:58;7.47;;;2.05;;
21501;SDS011;27639;48.674;9.242;2022-12-24T06:14:23;9.68;;;1.90;;
21501;SDS011;27639;48.674;9.242;2022-12-24T06:16:49;5.90;;;1.50;;
21501;SDS011;27639;48.674;9.242;2022-12-24T06:19:15;4.63;;;1.50;;
21501;SDS011;27639;48.674;9.242;2022-12-24T06:21:41;6.25;;;1.83;;
21501;SDS011;27639;48.674;9.242;2022-12-24T06:24:06;6.05;;;1.77;;
21501;SDS011;27639;48.674;9.242;2022-12-24T06:26:33;7.55;;;2.10;;
21501;SDS011;27639;48.674;9.242;2022-12-24T06:28:59;4.88;;;1.77;;
21501;SDS011;27639;48.674;9.242;2022-12-24T06:31:24;6.55;;;1.83;;
21501;SDS011;27639;48.674;9.242;2022-12-24T06:33:50;5.93;;;1.75;;
21501;SDS011;27639;48.674;9.242;2022-12-24T06:36:17;4.07;;;1.55;;
21501;SDS011;27639;48.674;9.242;2022-12-24T06:38:46;4.93;;;1.88;;
21501;SDS011;27639;48.674;9.242;2022-12-24T06:41:12;5.97;;;1.80;;
21501;SDS011;27639;48.674;9.242;2022-12-24T06:43:42;6.45;;;2.05;;
21501;SDS011;27639;48.674;9.242;2022-12-24T06:46:09;6.18;;;2.20;;
21501;SDS011;27639;48.674;9.242;2022-12-24T06:48:35;7.18;;;2.70;;
21501;SDS011;27639;48.674;9.242;2022-12-24T06:51:01;6.90;;;2.70;;
21501;SDS011;27639;48.674;9.242;2022-12-24T06:53:27;7.25;;;2.95;;
21501;SDS011;27639;48.674;9.242;2022-12-24T06:55:59;6.00;;;2.53;;
21501;SDS011;27639;48.674;9.242;2022-12-24T06:58:29;5.53;;;2.20;;
21501;SDS011;27639;48.674;9.242;2022-12-24T07:00:55;5.80;;;1.70;;
21501;SDS011;27639;48.674;9.242;2022-12-24T07:03:20;8.30;;;2.30;;
21501;SDS011;27639;48.674;9.242;2022-12-24T07:05:46;6.88;;;2.08;;
21501;SDS011;27639;48.674;9.242;2022-12-24T07:08:12;5.03;;;1.70;;
21501;SDS011;27639;48.674;9.242;2022-12-24T07:10:37;7.28;;;1.70;;
21501;SDS011;27639;48.674;9.242;2022-12-24T07:13:03;5.90;;;1.73;;
21501;SDS011;27639;48.674;9.242;2022-12-24T07:15:28;8.18;;;1.95;;
21501;SDS011;27639;48.674;9.242;2022-12-24T07:17:54;7.05;;;2.17;;
21501;SDS011;27639;48.674;9.242;2022-12-24T07:20:19;5.50;;;1.58;;
21501;SDS011;27639;48.674;9.242;2022-12-24T07:22:45;8.20;;;1.92;;
21501;SDS011;27639;48.674;9.242;2022-12-24T07:25:10;7.75;;;1.77;;
21501;SDS011;27639;48.674;9.242;2022-12-24T07:27:36;6.45;;;2.00;;
21501;SDS011;27639;48.674;9.242;2022-12-24T07:30:02;7.68;;;2.20;;
21501;SDS011;27639;48.674;9.242;2022-12-24T07:32:29;9.60;;;2.58;;
21501;SDS011;27639;48.674;9.242;2022-12-24T07:34:54;8.38;;;2.35;;
21501;SDS011;27639;48.674;9.242;2022-12-24T07:37:20;7.82;;;2.28;;
21501;SDS011;27639;48.674;9.242;2022-12-24T07:39:45;7.47;;;1.80;;
21501;SDS011;27639;48.674;9.242;2022-12-24T07:42:11;8.30;;;1.80;;
21501;SDS011;27639;48.674;9.242;2022-12-24T07:44:37;8.45;;;1.70;;
21501;SDS011;27639;48.674;9.242;2022-12-24T07:47:02;10.05;;;2.15;;
21501;SDS011;27639;48.674;9.242;2022-12-24T07:49:28;5.85;;;1.98;;
21501;SDS011;27639;48.674;9.242;2022-12-24T07:51:53;5.40;;;1.60;;
21501;SDS011;27639;48.674;9.242;2022-12-24T07:54:19;6.10;;;1.80;;
21501;SDS011;27639;48.674;9.242;2022-12-24T07:56:45;8.23;;;2.13;;
21501;SDS011;27639;48.674;9.242;2022-12-24T07:59:13;7.57;;;2.60;;
21501;SDS011;27639;48.674;9.242;2022-12-24T08:01:39;8.43;;;2.40;;
21501;SDS011;27639;48.674;9.242;2022-12-24T08:04:05;6.82;;;2.05;;
21501;SDS011;27639;48.674;9.242;2022-12-24T08:06:31;6.60;;;2.05;;
21501;SDS011;27639;48.674;9.242;2022-12-24T08:08:56;6.65;;;2.17;;
21501;SDS011;27639;48.674;9.242;2022-12-24T08:11:22;6.03;;;1.77;;
21501;SDS011;27639;48.674;9.242;2022-12-24T08:13:47;7.70;;;2.55;;
21501;SDS011;27639;48.674;9.242;2022-12-24T08:16:13;7.45;;;1.95;;
21501;SDS011;27639;48.674;9.242;2022-12-24T08:18:38;7.68;;;2.17;;
21501;SDS011;27639;48.674;9.242;2022-12-24T08:21:07;8.48;;;2.10;;
21501;SDS011;27639;48.674;9.242;2022-12-24T08:23:33;10.13;;;2.55;;
21501;SDS011;27639;48.674;9.242;2022-12-24T08:25:59;7.95;;;2.20;;
21501;SDS011;27639;48.674;9.242;2022-12-24T08:28:25;5.38;;;2.40;;
21501;SDS011;27639;48.674;9.242;2022-12-24T08:30:51;10.95;;;2.83;;
21501;SDS011;27639;48.674;9.242;2022-12-24T08:33:16;8.95;;;2.50;;
21501;SDS011;27639;48.674;9.242;2022-12-24T08:35:49;6.97;;;2.05;;
21501;SDS011;27639;48.674;9.242;2022-12-24T08:38:16;5.80;;;1.90;;
21501;SDS011;27639;48.674;9.242;2022-12-24T08:40:42;6.55;;;1.88;;
21501;SDS011;27639;48.674;9.242;2022-12-24T08:43:08;9.82;;;2.10;;
21501;SDS011;27639;48.674;9.242;2022-12-24T08:45:34;8.00;;;2.22;;
21501;SDS011;27639;48.674;9.242;2022-12-24T08:48:02;18.58;;;3.53;;
21501;SDS011;27639;48.674;9.242;2022-12-24T08:50:27;16.10;;;3.03;;
21501;SDS011;27639;48.674;9.242;2022-12-24T08:52:53;5.63;;;1.92;;
21501;SDS011;27639;48.674;9.242;2022-12-24T08:55:18;7.18;;;2.33;;
21501;SDS011;27639;48.674;9.242;2022-12-24T08:57:44;7.90;;;2.47;;
21501;SDS011;27639;48.674;9.242;2022-12-24T09:00:10;7.63;;;2.10;;
21501;SDS011;27639;48.674;9.242;2022-12-24T09:02:37;8.85;;;2.05;;
21501;SDS011;27639;48.674;9.242;2022-12-24T09:05:02;8.15;;;2.55;;
21501;SDS011;27639;48.674;9.242;2022-12-24T09:07:28;9.55;;;1.90;;
21501;SDS011;27639;48.674;9.242;2022-12-24T09:09:54;7.00;;;2.15;;
21501;SDS011;27639;48.674;9.242;2022-12-24T09:12:20;5.47;;;2.20;;
21501;SDS011;27639;48.674;9.242;2022-12-24T09:14:45;8.05;;;2.20;;
21501;SDS011;27639;48.674;9.242;2022-12-24T09:17:11;10.18;;;2.30;;
21501;SDS011;27639;48.674;9.242;2022-12-24T09:19:36;5.32;;;1.98;;
21501;SDS011;27639;48.674;9.242;2022-12-24T09:22:02;10.68;;;2.53;;
21501;SDS011;27639;48.674;9.242;2022-12-24T09:24:28;8.90;;;2.40;;
21501;SDS011;27639;48.674;9.242;2022-12-24T09:26:53;8.52;;;2.13;;
21501;SDS011;27639;48.674;9.242;2022-12-24T09:29:19;8.57;;;2.55;;
21501;SDS011;27639;48.674;9.242;2022-12-24T09:31:44;8.85;;;2.80;;
21501;SDS011;27639;48.674;9.242;2022-12-24T09:34:10;10.23;;;2.63;;
21501;SDS011;27639;48.674;9.242;2022-12-24T09:36:35;10.23;;;2.58;;
21501;SDS011;27639;48.674;9.242;2022-12-24T09:39:01;8.82;;;2.45;;
21501;SDS011;27639;48.674;9.242;2022-12-24T09:47:11;6.47;;;2.38;;
21501;SDS011;27639;48.674;9.242;2022-12-24T09:49:48;10.80;;;2.28;;
21501;SDS011;27639;48.674;9.242;2022-12-24T09:52:21;8.48;;;1.90;;
21501;SDS011;27639;48.674;9.242;2022-12-24T09:57:55;7.63;;;2.28;;
21501;SDS011;27639;48.674;9.242;2022-12-24T10:00:31;9.25;;;2.80;;
21501;SDS011;27639;48.674;9.242;2022-12-24T10:02:59;9.20;;;3.15;;
21501;SDS011;27639;48.674;9.242;2022-12-24T10:05:32;8.40;;;3.15;;
21501;SDS011;27639;48.674;9.242;2022-12-24T10:09:15;7.72;;;3.10;;
21501;SDS011;27639;48.674;9.242;2022-12-24T10:11:25;11.80;;;3.97;;
21501;SDS011;27639;48.674;9.242;2022-12-24T10:19:09;6.78;;;2.17;;
21501;SDS011;27639;48.674;9.242;2022-12-24T10:21:58;8.77;;;2.60;;
21501;SDS011;27639;48.674;9.242;2022-12-24T10:27:38;8.15;;;2.38;;
21501;SDS011;27639;48.674;9.242;2022-12-24T10:30:15;11.75;;;2.60;;
21501;SDS011;27639;48.674;9.242;2022-12-24T10:32:46;9.45;;;2.80;;
21501;SDS011;27639;48.674;9.242;2022-12-24T10:37:38;8.20;;;2.53;;
21501;SDS011;27639;48.674;9.242;2022-12-24T10:40:07;9.00;;;2.20;;
21501;SDS011;27639;48.674;9.242;2022-12-24T10:42:48;11.73;;;3.15;;
21501;SDS011;27639;48.674;9.242;2022-12-24T10:45:15;7.22;;;2.67;;
21501;SDS011;27639;48.674;9.242;2022-12-24T10:47:43;8.00;;;2.17;;
21501;SDS011;27639;48.674;9.242;2022-12-24T10:50:13;10.55;;;2.85;;
21501;SDS011;27639;48.674;9.242;2022-12-24T10:52:47;8.32;;;1.88;;
21501;SDS011;27639;48.674;9.242;2022-12-24T10:57:46;10.27;;;2.60;;
21501;SDS011;27639;48.674;9.242;2022-12-24T11:00:29;8.23;;;2.15;;
21501;SDS011;27639;48.674;9.242;2022-12-24T11:03:06;8.13;;;2.65;;
21501;SDS011;27639;48.674;9.242;2022-12-24T11:05:46;6.70;;;2.05;;
21501;SDS011;27639;48.674;9.242;2022-12-24T11:08:34;9.20;;;2.42;;
21501;SDS011;27639;48.674;9.242;2022-12-24T11:11:11;7.97;;;1.80;;
21501;SDS011;27639;48.674;9.242;2022-12-24T11:13:45;8.55;;;2.20;;
21501;SDS011;27639;48.674;9.242;2022-12-24T11:16:28;8.80;;;1.90;;
21501;SDS011;27639;48.674;9.242;2022-12-24T11:18:57;9.80;;;1.80;;
21501;SDS011;27639;48.674;9.242;2022-12-24T11:21:29;6.15;;;1.60;;
21501;SDS011;27639;48.674;9.242;2022-12-24T11:23:58;10.10;;;2.08;;
21501;SDS011;27639;48.674;9.242;2022-12-24T11:26:27;10.95;;;3.67;;
21501;SDS011;27639;48.674;9.242;2022-12-24T11:31:44;9.55;;;3.78;;
21501;SDS011;27639;48.674;9.242;2022-12-24T11:36:54;8.50;;;3.33;;
21501;SDS011;27639;48.674;9.242;2022-12-24T11:39:37;7.10;;;2.42;;
21501;SDS011;27639;48.674;9.242;2022-12-24T11:42:07;6.82;;;1.92;;
21501;SDS011;27639;48.674;9.242;2022-12-24T11:45:04;8.40;;;2.55;;
21501;SDS011;27639;48.674;9.242;2022-12-24T11:47:48;9.48;;;2.33;;
21501;SDS011;27639;48.674;9.242;2022-12-24T11:55:44;7.63;;;2.20;;
21501;SDS011;27639;48.674;9.242;2022-12-24T12:01:16;8.35;;;2.03;;
21501;SDS011;27639;48.674;9.242;2022-12-24T12:03:49;9.90;;;1.80;;
21501;SDS011;27639;48.674;9.242;2022-12-24T12:06:28;9.15;;;2.58;;
21501;SDS011;27639;48.674;9.242;2022-12-24T12:08:59;6.63;;;2.30;;
21501;SDS011;27639;48.674;9.242;2022-12-24T12:11:29;7.70;;;2.95;;
21501;SDS011;27639;48.674;9.242;2022-12-24T12:13:57;9.07;;;2.50;;
21501;SDS011;27639;48.674;9.242;2022-12-24T12:16:27;8.00;;;2.38;;
21501;SDS011;27639;48.674;9.242;2022-12-24T12:19:03;9.10;;;2.17;;
21501;SDS011;27639;48.674;9.242;2022-12-24T12:21:40;9.38;;;2.90;;
21501;SDS011;27639;48.674;9.242;2022-12-24T12:24:13;7.30;;;2.00;;
21501;SDS011;27639;48.674;9.242;2022-12-24T12:26:46;7.90;;;2.63;;
21501;SDS011;27639;48.674;9.242;2022-12-24T12:29:26;7.95;;;1.83;;
21501;SDS011;27639;48.674;9.242;2022-12-24T12:31:56;6.13;;;1.80;;
21501;SDS011;27639;48.674;9.242;2022-12-24T12:34:39;8.45;;;2.13;;
21501;SDS011;27639;48.674;9.242;2022-12-24T12:39:40;9.40;;;1.77;;
21501;SDS011;27639;48.674;9.242;2022-12-24T12:50:29;10.05;;;2.50;;
21501;SDS011;27639;48.674;9.242;2022-12-24T12:56:05;7.30;;;2.17;;
21501;SDS011;27639;48.674;9.242;2022-12-24T12:59:09;7.10;;;1.77;;
21501;SDS011;27639;48.674;9.242;2022-12-24T13:14:56;9.35;;;2.53;;
21501;SDS011;27639;48.674;9.242;2022-12-24T13:20:29;9.23;;;2.38;;
21501;SDS011;27639;48.674;9.242;2022-12-24T13:23:01;10.48;;;2.17;;
21501;SDS011;27639;48.674;9.242;2022-12-24T13:25:36;6.95;;;2.13;;
21501;SDS011;27639;48.674;9.242;2022-12-24T13:28:29;9.80;;;2.42;;
21501;SDS011;27639;48.674;9.242;2022-12-24T13:38:47;10.55;;;2.10;;
21501;SDS011;27639;48.674;9.242;2022-12-24T13:49:26;8.40;;;2.03;;
21501;SDS011;27639;48.674;9.242;2022-12-24T13:52:04;11.18;;;2.40;;
21501;SDS011;27639;48.674;9.242;2022-12-24T13:54:30;8.07;;;2.45;;
21501;SDS011;27639;48.674;9.242;2022-12-24T13:56:56;9.02;;;2.33;;
21501;SDS011;27639;48.674;9.242;2022-12-24T13:59:32;8.63;;;1.98;;
21501;SDS011;27639;48.674;9.242;2022-12-24T14:02:00;8.48;;;1.95;;
21501;SDS011;27639;48.674;9.242;2022-12-24T14:04:28;9.82;;;2.40;;
21501;SDS011;27639;48.674;9.242;2022-12-24T14:06:57;10.38;;;2.30;;
21501;SDS011;27639;48.674;9.242;2022-12-24T14:09:25;9.27;;;2.60;;
21501;SDS011;27639;48.674;9.242;2022-12-24T14:14:31;11.85;;;4.55;;
21501;SDS011;27639;48.674;9.242;2022-12-24T14:17:00;22.20;;;10.10;;
21501;SDS011;27639;48.674;9.242;2022-12-24T14:19:55;14.38;;;6.65;;
21501;SDS011;27639;48.674;9.242;2022-12-24T14:22:32;12.13;;;5.57;;
21501;SDS011;27639;48.674;9.242;2022-12-24T14:25:00;14.77;;;5.68;;
21501;SDS011;27639;48.674;9.242;2022-12-24T14:27:37;11.40;;;4.22;;
21501;SDS011;27639;48.674;9.242;2022-12-24T14:30:12;9.32;;;3.83;;
21501;SDS011;27639;48.674;9.242;2022-12-24T14:32:42;9.82;;;3.63;;
21501;SDS011;27639;48.674;9.242;2022-12-24T14:38:07;13.32;;;3.38;;
21501;SDS011;27639;48.674;9.242;2022-12-24T14:43:26;8.18;;;2.90;;
21501;SDS011;27639;48.674;9.242;2022-12-24T14:51:40;11.93;;;5.27;;
21501;SDS011;27639;48.674;9.242;2022-12-24T14:54:31;12.63;;;5.68;;
21501;SDS011;27639;48.674;9.242;2022-12-24T14:57:11;18.02;;;6.03;;
21501;SDS011;27639;48.674;9.242;2022-12-24T14:59:47;15.75;;;6.07;;
21501;SDS011;27639;48.674;9.242;2022-12-24T15:02:29;13.48;;;5.07;;
21501;SDS011;27639;48.674;9.242;2022-12-24T15:05:07;13.07;;;5.95;;
21501;SDS011;27639;48.674;9.242;2022-12-24T15:07:33;14.57;;;5.70;;
21501;SDS011;27639;48.674;9.242;2022-12-24T15:10:01;13.15;;;5.47;;
21501;SDS011;27639;48.674;9.242;2022-12-24T15:12:28;11.25;;;3.90;;
21501;SDS011;27639;48.674;9.242;2022-12-24T15:14:55;8.82;;;3.67;;
21501;SDS011;27639;48.674;9.242;2022-12-24T15:17:20;12.20;;;5.07;;
21501;SDS011;27639;48.674;9.242;2022-12-24T15:19:47;16.33;;;7.93;;
21501;SDS011;27639;48.674;9.242;2022-12-24T15:22:23;15.88;;;7.90;;
21501;SDS011;27639;48.674;9.242;2022-12-24T15:24:52;24.45;;;12.52;;
21501;SDS011;27639;48.674;9.242;2022-12-24T15:27:22;20.05;;;8.48;;
21501;SDS011;27639;48.674;9.242;2022-12-24T15:29:50;12.80;;;5.47;;
21501;SDS011;27639;48.674;9.242;2022-12-24T15:32:19;11.30;;;4.68;;
21501;SDS011;27639;48.674;9.242;2022-12-24T15:34:46;11.27;;;4.30;;
21501;SDS011;27639;48.674;9.242;2022-12-24T15:39:42;11.60;;;5.57;;
21501;SDS011;27639;48.674;9.242;2022-12-24T15:42:09;13.38;;;5.82;;
21501;SDS011;27639;48.674;9.242;2022-12-24T15:44:47;13.82;;;6.95;;
21501;SDS011;27639;48.674;9.242;2022-12-24T15:47:28;11.95;;;6.05;;
21501;SDS011;27639;48.674;9.242;2022-12-24T15:50:01;12.43;;;5.60;;
21501;SDS011;27639;48.674;9.242;2022-12-24T15:52:47;16.73;;;5.68;;
21501;SDS011;27639;48.674;9.242;2022-12-24T15:55:33;12.52;;;5.43;;
21501;SDS011;27639;48.674;9.242;2022-12-24T15:58:13;12.15;;;5.63;;
21501;SDS011;27639;48.674;9.242;2022-12-24T16:00:41;10.90;;;5.85;;
21501;SDS011;27639;48.674;9.242;2022-12-24T16:03:17;14.10;;;7.15;;
21501;SDS011;27639;48.674;9.242;2022-12-24T16:05:52;13.27;;;6.15;;
21501;SDS011;27639;48.674;9.242;2022-12-24T16:08:33;10.90;;;5.53;;
21501;SDS011;27639;48.674;9.242;2022-12-24T16:11:19;11.98;;;5.60;;
21501;SDS011;27639;48.674;9.242;2022-12-24T16:16:13;9.82;;;5.20;;
21501;SDS011;27639;48.674;9.242;2022-12-24T16:21:36;10.93;;;5.18;;
21501;SDS011;27639;48.674;9.242;2022-12-24T16:24:23;13.60;;;5.82;;
21501;SDS011;27639;48.674;9.242;2022-12-24T16:26:52;12.68;;;5.60;;
21501;SDS011;27639;48.674;9.242;2022-12-24T16:29:18;11.48;;;5.85;;
21501;SDS011;27639;48.674;9.242;2022-12-24T16:31:45;11.10;;;5.95;;
21501;SDS011;27639;48.674;9.242;2022-12-24T16:34:12;12.05;;;6.47;;
21501;SDS011;27639;48.674;9.242;2022-12-24T16:36:39;14.32;;;5.90;;
21501;SDS011;27639;48.674;9.242;2022-12-24T16:39:09;11.77;;;5.70;;
21501;SDS011;27639;48.674;9.242;2022-12-24T16:41:49;12.35;;;5.97;;
21501;SDS011;27639;48.674;9.242;2022-12-24T16:44:34;13.70;;;6.70;;
21501;SDS011;27639;48.674;9.242;2022-12-24T16:47:01;13.55;;;6.40;;
21501;SDS011;27639;48.674;9.242;2022-12-24T16:49:27;12.68;;;6.70;;
21501;SDS011;27639;48.674;9.242;2022-12-24T16:51:53;12.52;;;6.93;;
21501;SDS011;27639;48.674;9.242;2022-12-24T16:54:18;16.13;;;7.80;;
21501;SDS011;27639;48.674;9.242;2022-12-24T16:56:44;16.15;;;7.40;;
21501;SDS011;27639;48.674;9.242;2022-12-24T16:59:14;14.98;;;8.85;;
21501;SDS011;27639;48.674;9.242;2022-12-24T17:01:41;14.80;;;7.35;;
21501;SDS011;27639;48.674;9.242;2022-12-24T17:04:06;18.20;;;9.93;;
21501;SDS011;27639;48.674;9.242;2022-12-24T17:06:32;18.85;;;10.85;;
21501;SDS011;27639;48.674;9.242;2022-12-24T17:08:58;18.23;;;11.10;;
21501;SDS011;27639;48.674;9.242;2022-12-24T17:11:23;18.40;;;10.13;;